Trapani — LM4563 — position and weather

sailwx.info

Track history (hours):
 
Tides and Currents Weather Stations Pressure Air Temp Water Temp Dewpoint Dewpoint Depression Visibility Wind Speed Wind Dir Waves Ship Positions

Trapani

Last reported at 2017-Nov-30 06:46 UTC. Time now 2018-Jan-24 10:01 UTC.
Position N 69°07' E 017°38'.
Warning: this ship's position is 55 days out of date.

Length 10 m.

Type: Fishing. MMSI: 257176540.

Date/timePositionNaut miles runAvg speedWind from/ knotsBaromVisibWave heightAir tempDewpointWater temp
2017-Nov-30 06:46N 69°07' E 017°38'2 6.6
2017-Nov-30 06:30N 69°06' E 017°34'1 0.5
2017-Nov-30 04:23N 69°05' E 017°36'0 0.0
2017-Nov-29 16:37N 69°05' E 017°37'0 0.0
2017-Nov-29 16:25N 69°05' E 017°37'0 0.0
2017-Nov-29 15:55N 69°05' E 017°37'0 0.0
2017-Nov-29 15:25N 69°05' E 017°37'2 2.0
2017-Nov-29 14:34N 69°06' E 017°32'1 0.2
2017-Nov-29 08:25N 69°06' E 017°35'1 2.1
2017-Nov-29 07:59N 69°05' E 017°37'0 0.0
2017-Nov-29 07:29N 69°05' E 017°37'0 0.0
2017-Nov-29 06:59N 69°05' E 017°37'0 0.0
2017-Nov-29 06:29N 69°05' E 017°37'0 0.0
2017-Nov-29 05:53N 69°05' E 017°37'0 0.0
2017-Nov-29 05:05N 69°05' E 017°37'0 0.0
2017-Nov-29 04:59N 69°05' E 017°37'0 0.0
2017-Nov-29 04:29N 69°05' E 017°37'0 0.0
2017-Nov-29 03:59N 69°05' E 017°37'0 0.0
2017-Nov-29 03:29N 69°05' E 017°37'0 0.0
2017-Nov-29 02:59N 69°05' E 017°37'0 0.0
2017-Nov-29 02:23N 69°05' E 017°37'0 0.0
2017-Nov-29 01:59N 69°05' E 017°37'0 0.0
2017-Nov-29 01:23N 69°05' E 017°37'0 0.0
2017-Nov-29 00:59N 69°05' E 017°37'0 0.0
2017-Nov-29 00:29N 69°05' E 017°37'0 0.0
2017-Nov-28 23:59N 69°05' E 017°37'0 0.0
2017-Nov-28 22:53N 69°05' E 017°37'0 0.0
2017-Nov-28 22:29N 69°05' E 017°37'0 0.0
2017-Nov-28 21:59N 69°05' E 017°37'0 0.0
2017-Nov-28 21:29N 69°05' E 017°37'0 0.0
2017-Nov-28 20:59N 69°05' E 017°37'0 0.0
2017-Nov-28 20:29N 69°05' E 017°37'0 0.0
2017-Nov-28 19:59N 69°05' E 017°37'0 0.0
2017-Nov-28 19:29N 69°05' E 017°37'0 0.0
2017-Nov-28 18:59N 69°05' E 017°37'0 0.0
2017-Nov-28 18:29N 69°05' E 017°37'0 0.0
2017-Nov-28 17:59N 69°05' E 017°37'0 0.0
2017-Nov-28 17:29N 69°05' E 017°37'0 0.0
2017-Nov-28 16:53N 69°05' E 017°37'0 0.0
2017-Nov-28 16:29N 69°05' E 017°37'0 0.0
2017-Nov-28 15:59N 69°05' E 017°37'0 0.0
2017-Nov-28 14:59N 69°05' E 017°37'0 0.0
2017-Nov-28 14:29N 69°05' E 017°37'0 0.0
2017-Nov-28 13:59N 69°05' E 017°37'0 0.0
2017-Nov-28 13:29N 69°05' E 017°37'1 0.9
2017-Nov-28 12:39N 69°06' E 017°36'0 2.3
2017-Nov-28 12:29N 69°06' E 017°35'1 1.4
2017-Nov-28 12:00N 69°06' E 017°33'  
2017-Nov-26 05:35N 69°05' E 017°36'0 1.5
2017-Nov-26 05:17N 69°05' E 017°37'0 0.0
2017-Nov-26 04:59N 69°05' E 017°37'0 0.0
2017-Nov-25 14:12N 69°05' E 017°37'0 0.0
2017-Nov-23 21:58N 69°05' E 017°37'0 0.0
2017-Nov-23 17:16N 69°05' E 017°37'0 0.0
2017-Nov-23 15:46N 69°05' E 017°37'0 0.0
2017-Nov-23 14:22N 69°05' E 017°37'0 0.0
2017-Nov-23 13:46N 69°05' E 017°37'0 0.0
2017-Nov-23 12:16N 69°05' E 017°37'0 0.0
2017-Nov-23 11:52N 69°05' E 017°37'0 0.0
2017-Nov-23 02:16N 69°05' E 017°37'0 0.0
2017-Nov-22 20:34N 69°05' E 017°37'  
Track history (hours):
 
Tides and Currents Weather Stations Pressure Air Temp Water Temp Dewpoint Dewpoint Depression Visibility Wind Speed Wind Dir Waves Ship Positions

Trapani

Last reported at 2017-Nov-30 06:46 UTC. Time now 2018-Jan-24 10:01 UTC.
Position N 69°07' E 017°38'.
Warning: this ship's position is 55 days out of date.

Length 10 m.

Type: Fishing. MMSI: 257176540.

Date/timePositionNaut miles runAvg speedWind from/ knotsBaromVisibWave heightAir tempDewpointWater temp
2017-Nov-30 06:46N 69°07' E 017°38'2 6.6
2017-Nov-30 06:30N 69°06' E 017°34'1 0.5
2017-Nov-30 04:23N 69°05' E 017°36'0 0.0
2017-Nov-29 16:37N 69°05' E 017°37'0 0.0
2017-Nov-29 16:25N 69°05' E 017°37'0 0.0
2017-Nov-29 15:55N 69°05' E 017°37'0 0.0
2017-Nov-29 15:25N 69°05' E 017°37'2 2.0
2017-Nov-29 14:34N 69°06' E 017°32'1 0.2
2017-Nov-29 08:25N 69°06' E 017°35'1 2.1
2017-Nov-29 07:59N 69°05' E 017°37'0 0.0
2017-Nov-29 07:29N 69°05' E 017°37'0 0.0
2017-Nov-29 06:59N 69°05' E 017°37'0 0.0
2017-Nov-29 06:29N 69°05' E 017°37'0 0.0
2017-Nov-29 05:53N 69°05' E 017°37'0 0.0
2017-Nov-29 05:05N 69°05' E 017°37'0 0.0
2017-Nov-29 04:59N 69°05' E 017°37'0 0.0
2017-Nov-29 04:29N 69°05' E 017°37'0 0.0
2017-Nov-29 03:59N 69°05' E 017°37'0 0.0
2017-Nov-29 03:29N 69°05' E 017°37'0 0.0
2017-Nov-29 02:59N 69°05' E 017°37'0 0.0
2017-Nov-29 02:23N 69°05' E 017°37'0 0.0
2017-Nov-29 01:59N 69°05' E 017°37'0 0.0
2017-Nov-29 01:23N 69°05' E 017°37'0 0.0
2017-Nov-29 00:59N 69°05' E 017°37'0 0.0
2017-Nov-29 00:29N 69°05' E 017°37'0 0.0
2017-Nov-28 23:59N 69°05' E 017°37'0 0.0
2017-Nov-28 22:53N 69°05' E 017°37'0 0.0
2017-Nov-28 22:29N 69°05' E 017°37'0 0.0
2017-Nov-28 21:59N 69°05' E 017°37'0 0.0
2017-Nov-28 21:29N 69°05' E 017°37'0 0.0
2017-Nov-28 20:59N 69°05' E 017°37'0 0.0
2017-Nov-28 20:29N 69°05' E 017°37'0 0.0
2017-Nov-28 19:59N 69°05' E 017°37'0 0.0
2017-Nov-28 19:29N 69°05' E 017°37'0 0.0
2017-Nov-28 18:59N 69°05' E 017°37'0 0.0
2017-Nov-28 18:29N 69°05' E 017°37'0 0.0
2017-Nov-28 17:59N 69°05' E 017°37'0 0.0
2017-Nov-28 17:29N 69°05' E 017°37'0 0.0
2017-Nov-28 16:53N 69°05' E 017°37'0 0.0
2017-Nov-28 16:29N 69°05' E 017°37'0 0.0
2017-Nov-28 15:59N 69°05' E 017°37'0 0.0
2017-Nov-28 14:59N 69°05' E 017°37'0 0.0
2017-Nov-28 14:29N 69°05' E 017°37'0 0.0
2017-Nov-28 13:59N 69°05' E 017°37'0 0.0
2017-Nov-28 13:29N 69°05' E 017°37'1 0.9
2017-Nov-28 12:39N 69°06' E 017°36'0 2.3
2017-Nov-28 12:29N 69°06' E 017°35'1 1.4
2017-Nov-28 12:00N 69°06' E 017°33'  
2017-Nov-26 05:35N 69°05' E 017°36'0 1.5
2017-Nov-26 05:17N 69°05' E 017°37'0 0.0
2017-Nov-26 04:59N 69°05' E 017°37'0 0.0
2017-Nov-25 14:12N 69°05' E 017°37'0 0.0
2017-Nov-23 21:58N 69°05' E 017°37'0 0.0
2017-Nov-23 17:16N 69°05' E 017°37'0 0.0
2017-Nov-23 15:46N 69°05' E 017°37'0 0.0
2017-Nov-23 14:22N 69°05' E 017°37'0 0.0
2017-Nov-23 13:46N 69°05' E 017°37'0 0.0
2017-Nov-23 12:16N 69°05' E 017°37'0 0.0
2017-Nov-23 11:52N 69°05' E 017°37'0 0.0
2017-Nov-23 02:16N 69°05' E 017°37'0 0.0
2017-Nov-22 20:34N 69°05' E 017°37'  

Dump ship's entire track history